sensor_id;sensor_type;location;lat;lon;timestamp;temperature;humidity
26743;DHT22;14341;51.256;22.478;2023-03-20T00:00:29;3.10;99.90
26743;DHT22;14341;51.256;22.478;2023-03-20T00:03:33;3.10;99.90
26743;DHT22;14341;51.256;22.478;2023-03-20T00:06:36;3.00;99.90
26743;DHT22;14341;51.256;22.478;2023-03-20T00:09:39;3.00;99.90
26743;DHT22;14341;51.256;22.478;2023-03-20T00:12:46;3.20;99.90
26743;DHT22;14341;51.256;22.478;2023-03-20T00:15:50;3.20;99.90
26743;DHT22;14341;51.256;22.478;2023-03-20T00:18:53;3.20;99.90
26743;DHT22;14341;51.256;22.478;2023-03-20T00:21:57;3.20;99.90
26743;DHT22;14341;51.256;22.478;2023-03-20T00:25:00;3.20;99.90
26743;DHT22;14341;51.256;22.478;2023-03-20T00:28:25;3.20;99.90
26743;DHT22;14341;51.256;22.478;2023-03-20T00:31:31;3.20;99.90
26743;DHT22;14341;51.256;22.478;2023-03-20T00:34:35;3.10;99.90
26743;DHT22;14341;51.256;22.478;2023-03-20T00:37:39;3.00;99.90
26743;DHT22;14341;51.256;22.478;2023-03-20T00:40:43;3.00;99.90
26743;DHT22;14341;51.256;22.478;2023-03-20T00:43:51;2.90;99.90
26743;DHT22;14341;51.256;22.478;2023-03-20T00:46:56;2.90;99.90
26743;DHT22;14341;51.256;22.478;2023-03-20T00:50:01;3.00;99.90
26743;DHT22;14341;51.256;22.478;2023-03-20T00:53:09;2.90;99.90
26743;DHT22;14341;51.256;22.478;2023-03-20T00:56:28;2.90;99.90
26743;DHT22;14341;51.256;22.478;2023-03-20T00:59:36;2.80;99.90
26743;DHT22;14341;51.256;22.478;2023-03-20T01:02:40;2.80;99.90
26743;DHT22;14341;51.256;22.478;2023-03-20T01:05:44;2.80;99.90
26743;DHT22;14341;51.256;22.478;2023-03-20T01:08:47;2.70;99.90
26743;DHT22;14341;51.256;22.478;2023-03-20T01:11:52;2.70;99.90
26743;DHT22;14341;51.256;22.478;2023-03-20T01:14:57;2.90;99.90
26743;DHT22;14341;51.256;22.478;2023-03-20T01:18:00;2.90;99.90
26743;DHT22;14341;51.256;22.478;2023-03-20T01:21:04;2.80;99.90
26743;DHT22;14341;51.256;22.478;2023-03-20T01:24:08;2.80;99.90
26743;DHT22;14341;51.256;22.478;2023-03-20T01:27:13;2.90;99.90
26743;DHT22;14341;51.256;22.478;2023-03-20T01:30:20;3.00;99.90
26743;DHT22;14341;51.256;22.478;2023-03-20T01:33:24;3.00;99.90
26743;DHT22;14341;51.256;22.478;2023-03-20T01:36:29;3.00;99.90
26743;DHT22;14341;51.256;22.478;2023-03-20T01:39:34;2.80;99.90
26743;DHT22;14341;51.256;22.478;2023-03-20T01:42:39;2.70;99.90
26743;DHT22;14341;51.256;22.478;2023-03-20T01:45:51;2.70;99.90
26743;DHT22;14341;51.256;22.478;2023-03-20T01:49:00;2.50;99.90
26743;DHT22;14341;51.256;22.478;2023-03-20T01:52:07;2.40;99.90
26743;DHT22;14341;51.256;22.478;2023-03-20T01:55:11;2.30;99.90
26743;DHT22;14341;51.256;22.478;2023-03-20T01:58:18;2.10;99.90
26743;DHT22;14341;51.256;22.478;2023-03-20T02:01:26;2.00;99.90
26743;DHT22;14341;51.256;22.478;2023-03-20T02:04:32;1.90;99.90
26743;DHT22;14341;51.256;22.478;2023-03-20T02:07:48;1.80;99.90
26743;DHT22;14341;51.256;22.478;2023-03-20T02:10:54;1.80;99.90
26743;DHT22;14341;51.256;22.478;2023-03-20T02:14:02;1.80;99.90
26743;DHT22;14341;51.256;22.478;2023-03-20T02:17:15;1.80;99.90
26743;DHT22;14341;51.256;22.478;2023-03-20T02:20:33;1.80;99.90
26743;DHT22;14341;51.256;22.478;2023-03-20T02:27:32;1.70;99.90
26743;DHT22;14341;51.256;22.478;2023-03-20T02:41:28;1.60;99.90
26743;DHT22;14341;51.256;22.478;2023-03-20T02:44:36;1.70;99.90
26743;DHT22;14341;51.256;22.478;2023-03-20T02:47:49;1.60;99.90
26743;DHT22;14341;51.256;22.478;2023-03-20T02:51:00;1.50;99.90
26743;DHT22;14341;51.256;22.478;2023-03-20T02:54:12;1.60;99.90
26743;DHT22;14341;51.256;22.478;2023-03-20T02:57:26;1.50;99.90
26743;DHT22;14341;51.256;22.478;2023-03-20T03:01:01;1.50;99.90
26743;DHT22;14341;51.256;22.478;2023-03-20T03:04:10;1.50;99.90
26743;DHT22;14341;51.256;22.478;2023-03-20T03:07:16;1.70;99.90
26743;DHT22;14341;51.256;22.478;2023-03-20T03:10:27;1.60;99.90
26743;DHT22;14341;51.256;22.478;2023-03-20T03:13:35;1.50;99.90
26743;DHT22;14341;51.256;22.478;2023-03-20T03:16:39;1.50;99.90
26743;DHT22;14341;51.256;22.478;2023-03-20T03:19:45;1.50;99.90
26743;DHT22;14341;51.256;22.478;2023-03-20T03:22:49;1.50;99.90
26743;DHT22;14341;51.256;22.478;2023-03-20T03:25:55;1.70;99.90
26743;DHT22;14341;51.256;22.478;2023-03-20T03:29:02;1.60;99.90
26743;DHT22;14341;51.256;22.478;2023-03-20T03:32:22;1.70;99.90
26743;DHT22;14341;51.256;22.478;2023-03-20T03:35:25;1.60;99.90
26743;DHT22;14341;51.256;22.478;2023-03-20T03:38:32;1.50;99.90
26743;DHT22;14341;51.256;22.478;2023-03-20T03:41:40;1.50;99.90
26743;DHT22;14341;51.256;22.478;2023-03-20T03:44:52;1.50;99.90
26743;DHT22;14341;51.256;22.478;2023-03-20T03:48:02;1.50;99.90
26743;DHT22;14341;51.256;22.478;2023-03-20T03:51:10;1.40;99.90
26743;DHT22;14341;51.256;22.478;2023-03-20T03:54:30;1.30;99.90
26743;DHT22;14341;51.256;22.478;2023-03-20T03:58:05;1.40;99.90
26743;DHT22;14341;51.256;22.478;2023-03-20T04:01:12;1.20;99.90
26743;DHT22;14341;51.256;22.478;2023-03-20T04:04:17;1.20;99.90
26743;DHT22;14341;51.256;22.478;2023-03-20T04:07:25;1.30;99.90
26743;DHT22;14341;51.256;22.478;2023-03-20T04:10:29;1.20;99.90
26743;DHT22;14341;51.256;22.478;2023-03-20T04:13:34;1.10;99.90
26743;DHT22;14341;51.256;22.478;2023-03-20T04:16:37;1.10;99.90
26743;DHT22;14341;51.256;22.478;2023-03-20T04:19:40;1.10;99.90
26743;DHT22;14341;51.256;22.478;2023-03-20T04:22:43;1.00;99.90
26743;DHT22;14341;51.256;22.478;2023-03-20T04:25:48;0.90;99.90
26743;DHT22;14341;51.256;22.478;2023-03-20T04:28:54;0.90;99.90
26743;DHT22;14341;51.256;22.478;2023-03-20T04:32:13;1.00;99.90
26743;DHT22;14341;51.256;22.478;2023-03-20T04:35:32;0.90;99.90
26743;DHT22;14341;51.256;22.478;2023-03-20T04:38:41;1.00;99.90
26743;DHT22;14341;51.256;22.478;2023-03-20T04:41:44;1.00;99.90
26743;DHT22;14341;51.256;22.478;2023-03-20T04:44:49;0.90;99.90
26743;DHT22;14341;51.256;22.478;2023-03-20T04:47:53;1.00;99.90
26743;DHT22;14341;51.256;22.478;2023-03-20T04:50:57;1.10;99.90
26743;DHT22;14341;51.256;22.478;2023-03-20T04:54:13;1.10;99.90
26743;DHT22;14341;51.256;22.478;2023-03-20T04:57:17;1.00;99.90
26743;DHT22;14341;51.256;22.478;2023-03-20T05:00:22;1.00;99.90
26743;DHT22;14341;51.256;22.478;2023-03-20T05:03:26;1.00;99.90
26743;DHT22;14341;51.256;22.478;2023-03-20T05:06:30;1.10;99.90
26743;DHT22;14341;51.256;22.478;2023-03-20T05:09:34;1.10;99.90
26743;DHT22;14341;51.256;22.478;2023-03-20T05:12:39;1.10;99.90
26743;DHT22;14341;51.256;22.478;2023-03-20T05:16:02;1.20;99.90
26743;DHT22;14341;51.256;22.478;2023-03-20T05:19:16;1.30;99.90
26743;DHT22;14341;51.256;22.478;2023-03-20T05:22:27;1.30;99.90
26743;DHT22;14341;51.256;22.478;2023-03-20T05:25:45;1.40;99.90
26743;DHT22;14341;51.256;22.478;2023-03-20T05:29:06;1.50;99.90
26743;DHT22;14341;51.256;22.478;2023-03-20T05:32:34;1.60;99.90
26743;DHT22;14341;51.256;22.478;2023-03-20T05:35:55;1.70;99.90
26743;DHT22;14341;51.256;22.478;2023-03-20T05:39:08;1.70;99.90
26743;DHT22;14341;51.256;22.478;2023-03-20T05:42:33;1.80;99.90
26743;DHT22;14341;51.256;22.478;2023-03-20T05:45:50;1.90;99.90
26743;DHT22;14341;51.256;22.478;2023-03-20T05:49:15;2.00;99.90
26743;DHT22;14341;51.256;22.478;2023-03-20T05:52:22;2.10;99.90
26743;DHT22;14341;51.256;22.478;2023-03-20T05:55:51;2.20;99.90
26743;DHT22;14341;51.256;22.478;2023-03-20T05:59:24;2.30;99.90
26743;DHT22;14341;51.256;22.478;2023-03-20T06:02:46;2.50;99.90
26743;DHT22;14341;51.256;22.478;2023-03-20T06:06:20;2.60;99.90
26743;DHT22;14341;51.256;22.478;2023-03-20T06:09:25;2.80;99.90
26743;DHT22;14341;51.256;22.478;2023-03-20T06:12:30;3.00;99.90
26743;DHT22;14341;51.256;22.478;2023-03-20T06:15:34;3.10;99.90
26743;DHT22;14341;51.256;22.478;2023-03-20T06:18:46;3.20;99.90
26743;DHT22;14341;51.256;22.478;2023-03-20T06:21:51;3.30;99.90
26743;DHT22;14341;51.256;22.478;2023-03-20T06:24:55;4.00;99.90
26743;DHT22;14341;51.256;22.478;2023-03-20T06:28:06;4.70;99.90
26743;DHT22;14341;51.256;22.478;2023-03-20T06:31:10;5.10;99.90
26743;DHT22;14341;51.256;22.478;2023-03-20T06:34:13;5.30;99.90
26743;DHT22;14341;51.256;22.478;2023-03-20T06:37:20;5.40;99.90
26743;DHT22;14341;51.256;22.478;2023-03-20T06:40:25;5.70;99.90
26743;DHT22;14341;51.256;22.478;2023-03-20T06:43:29;6.00;99.90
26743;DHT22;14341;51.256;22.478;2023-03-20T06:46:34;6.30;99.90
26743;DHT22;14341;51.256;22.478;2023-03-20T06:49:37;6.60;99.90
26743;DHT22;14341;51.256;22.478;2023-03-20T06:52:43;6.90;99.50
26743;DHT22;14341;51.256;22.478;2023-03-20T06:56:12;7.20;94.20
26743;DHT22;14341;51.256;22.478;2023-03-20T06:59:16;7.30;93.00
26743;DHT22;14341;51.256;22.478;2023-03-20T07:02:20;7.50;93.50
26743;DHT22;14341;51.256;22.478;2023-03-20T07:05:23;7.60;94.10
26743;DHT22;14341;51.256;22.478;2023-03-20T07:08:30;7.60;83.20
26743;DHT22;14341;51.256;22.478;2023-03-20T07:11:36;7.70;83.70
26743;DHT22;14341;51.256;22.478;2023-03-20T07:14:39;7.90;75.60
26743;DHT22;14341;51.256;22.478;2023-03-20T07:17:47;8.10;72.00
26743;DHT22;14341;51.256;22.478;2023-03-20T07:20:51;8.50;78.90
26743;DHT22;14341;51.256;22.478;2023-03-20T07:23:56;8.70;56.10
26743;DHT22;14341;51.256;22.478;2023-03-20T07:27:00;9.00;53.30
26743;DHT22;14341;51.256;22.478;2023-03-20T07:30:05;9.20;51.30
26743;DHT22;14341;51.256;22.478;2023-03-20T07:33:10;9.50;37.60
26743;DHT22;14341;51.256;22.478;2023-03-20T07:36:14;9.60;18.10
26743;DHT22;14341;51.256;22.478;2023-03-20T07:39:19;9.80;4.50
26743;DHT22;14341;51.256;22.478;2023-03-20T07:42:55;10.00;1.00
26743;DHT22;14341;51.256;22.478;2023-03-20T07:46:19;10.40;1.00
26743;DHT22;14341;51.256;22.478;2023-03-20T07:49:22;10.80;1.00
26743;DHT22;14341;51.256;22.478;2023-03-20T07:52:27;10.80;1.00
26743;DHT22;14341;51.256;22.478;2023-03-20T07:55:31;11.00;1.00
26743;DHT22;14341;51.256;22.478;2023-03-20T07:58:35;11.20;1.00
26743;DHT22;14341;51.256;22.478;2023-03-20T08:01:38;11.20;1.00
26743;DHT22;14341;51.256;22.478;2023-03-20T08:04:43;11.20;1.00
26743;DHT22;14341;51.256;22.478;2023-03-20T08:07:48;11.20;1.00
26743;DHT22;14341;51.256;22.478;2023-03-20T08:10:57;11.40;1.00
26743;DHT22;14341;51.256;22.478;2023-03-20T08:14:03;11.60;1.00
26743;DHT22;14341;51.256;22.478;2023-03-20T08:17:12;11.30;1.00
26743;DHT22;14341;51.256;22.478;2023-03-20T08:20:19;11.30;1.00
26743;DHT22;14341;51.256;22.478;2023-03-20T08:23:24;11.30;1.00
26743;DHT22;14341;51.256;22.478;2023-03-20T08:26:29;11.20;1.00
26743;DHT22;14341;51.256;22.478;2023-03-20T08:29:37;11.20;1.00
26743;DHT22;14341;51.256;22.478;2023-03-20T08:32:47;11.20;1.00
26743;DHT22;14341;51.256;22.478;2023-03-20T08:35:58;11.30;1.00
26743;DHT22;14341;51.256;22.478;2023-03-20T08:39:03;11.20;1.00
26743;DHT22;14341;51.256;22.478;2023-03-20T08:42:13;11.20;1.00
26743;DHT22;14341;51.256;22.478;2023-03-20T08:45:20;11.20;1.00
26743;DHT22;14341;51.256;22.478;2023-03-20T08:49:08;11.40;1.00
26743;DHT22;14341;51.256;22.478;2023-03-20T08:52:51;11.50;1.00
26743;DHT22;14341;51.256;22.478;2023-03-20T08:55:54;11.80;1.00
26743;DHT22;14341;51.256;22.478;2023-03-20T08:59:00;12.00;99.90
26743;DHT22;14341;51.256;22.478;2023-03-20T09:02:04;12.20;99.90
26743;DHT22;14341;51.256;22.478;2023-03-20T09:05:09;12.30;99.90
26743;DHT22;14341;51.256;22.478;2023-03-20T09:08:18;12.50;99.90
26743;DHT22;14341;51.256;22.478;2023-03-20T09:11:26;12.50;99.90
26743;DHT22;14341;51.256;22.478;2023-03-20T09:14:31;12.60;99.90
26743;DHT22;14341;51.256;22.478;2023-03-20T09:17:35;12.50;99.90
26743;DHT22;14341;51.256;22.478;2023-03-20T09:20:39;12.60;99.90
26743;DHT22;14341;51.256;22.478;2023-03-20T09:23:42;12.70;99.90
26743;DHT22;14341;51.256;22.478;2023-03-20T09:26:45;13.00;99.90
26743;DHT22;14341;51.256;22.478;2023-03-20T09:29:50;13.10;99.90
26743;DHT22;14341;51.256;22.478;2023-03-20T09:32:54;13.10;99.90
26743;DHT22;14341;51.256;22.478;2023-03-20T09:35:57;13.00;99.90
26743;DHT22;14341;51.256;22.478;2023-03-20T09:39:01;13.10;99.90
26743;DHT22;14341;51.256;22.478;2023-03-20T09:42:10;13.10;99.90
26743;DHT22;14341;51.256;22.478;2023-03-20T09:45:26;13.30;99.90
26743;DHT22;14341;51.256;22.478;2023-03-20T09:48:40;13.20;99.90
26743;DHT22;14341;51.256;22.478;2023-03-20T09:51:51;13.20;99.90
26743;DHT22;14341;51.256;22.478;2023-03-20T09:54:57;13.40;99.90
26743;DHT22;14341;51.256;22.478;2023-03-20T09:58:09;13.80;99.90
26743;DHT22;14341;51.256;22.478;2023-03-20T10:01:16;13.70;99.90
26743;DHT22;14341;51.256;22.478;2023-03-20T10:04:22;13.90;99.90
26743;DHT22;14341;51.256;22.478;2023-03-20T10:07:25;13.80;99.90
26743;DHT22;14341;51.256;22.478;2023-03-20T10:10:36;14.20;99.90
26743;DHT22;14341;51.256;22.478;2023-03-20T10:14:01;14.20;99.90
26743;DHT22;14341;51.256;22.478;2023-03-20T10:17:20;14.40;99.90
26743;DHT22;14341;51.256;22.478;2023-03-20T10:20:31;14.20;99.90
26743;DHT22;14341;51.256;22.478;2023-03-20T10:23:40;14.30;99.90
26743;DHT22;14341;51.256;22.478;2023-03-20T10:26:48;14.20;99.90
26743;DHT22;14341;51.256;22.478;2023-03-20T10:30:00;14.10;99.90
26743;DHT22;14341;51.256;22.478;2023-03-20T10:33:17;14.40;99.90
26743;DHT22;14341;51.256;22.478;2023-03-20T10:36:40;14.70;99.90
26743;DHT22;14341;51.256;22.478;2023-03-20T10:39:53;14.50;99.90
26743;DHT22;14341;51.256;22.478;2023-03-20T10:43:04;15.00;99.90
26743;DHT22;14341;51.256;22.478;2023-03-20T10:46:11;15.20;99.90
26743;DHT22;14341;51.256;22.478;2023-03-20T10:49:19;15.20;99.90
26743;DHT22;14341;51.256;22.478;2023-03-20T10:52:26;15.20;99.90
26743;DHT22;14341;51.256;22.478;2023-03-20T10:55:33;14.70;99.90
26743;DHT22;14341;51.256;22.478;2023-03-20T10:58:39;14.60;99.90
26743;DHT22;14341;51.256;22.478;2023-03-20T11:01:43;14.90;99.90
26743;DHT22;14341;51.256;22.478;2023-03-20T11:04:48;15.40;99.90
26743;DHT22;14341;51.256;22.478;2023-03-20T11:08:01;16.00;99.90
26743;DHT22;14341;51.256;22.478;2023-03-20T11:11:05;16.30;99.90
26743;DHT22;14341;51.256;22.478;2023-03-20T11:14:13;16.50;99.90
26743;DHT22;14341;51.256;22.478;2023-03-20T11:17:19;16.60;99.90
26743;DHT22;14341;51.256;22.478;2023-03-20T11:20:25;17.10;99.90
26743;DHT22;14341;51.256;22.478;2023-03-20T11:23:32;17.30;99.90
26743;DHT22;14341;51.256;22.478;2023-03-20T11:26:38;17.60;99.90
26743;DHT22;14341;51.256;22.478;2023-03-20T11:29:42;17.40;99.90
26743;DHT22;14341;51.256;22.478;2023-03-20T11:32:49;17.20;99.90
26743;DHT22;14341;51.256;22.478;2023-03-20T11:35:56;17.20;99.90
26743;DHT22;14341;51.256;22.478;2023-03-20T11:39:06;16.60;99.90
26743;DHT22;14341;51.256;22.478;2023-03-20T11:42:22;16.50;99.90
26743;DHT22;14341;51.256;22.478;2023-03-20T11:45:29;16.30;99.90
26743;DHT22;14341;51.256;22.478;2023-03-20T11:48:37;16.90;99.90
26743;DHT22;14341;51.256;22.478;2023-03-20T11:51:42;17.10;99.90
26743;DHT22;14341;51.256;22.478;2023-03-20T11:54:48;17.10;99.90
26743;DHT22;14341;51.256;22.478;2023-03-20T11:57:55;17.30;99.90
26743;DHT22;14341;51.256;22.478;2023-03-20T12:01:00;17.50;99.90
26743;DHT22;14341;51.256;22.478;2023-03-20T12:04:06;18.20;99.90
26743;DHT22;14341;51.256;22.478;2023-03-20T12:07:15;18.30;99.90
26743;DHT22;14341;51.256;22.478;2023-03-20T12:10:19;18.40;99.90
26743;DHT22;14341;51.256;22.478;2023-03-20T12:13:26;18.20;99.90
26743;DHT22;14341;51.256;22.478;2023-03-20T12:16:33;17.20;99.90
26743;DHT22;14341;51.256;22.478;2023-03-20T12:19:39;17.20;99.90
26743;DHT22;14341;51.256;22.478;2023-03-20T12:22:51;17.10;99.90
26743;DHT22;14341;51.256;22.478;2023-03-20T12:26:00;16.70;99.90
26743;DHT22;14341;51.256;22.478;2023-03-20T12:29:09;17.10;99.90
26743;DHT22;14341;51.256;22.478;2023-03-20T12:32:19;17.20;99.90
26743;DHT22;14341;51.256;22.478;2023-03-20T12:35:27;16.70;99.90
26743;DHT22;14341;51.256;22.478;2023-03-20T12:38:32;16.70;99.90
26743;DHT22;14341;51.256;22.478;2023-03-20T12:41:40;16.60;99.90
26743;DHT22;14341;51.256;22.478;2023-03-20T12:44:48;16.70;99.90
26743;DHT22;14341;51.256;22.478;2023-03-20T12:48:11;17.30;99.90
26743;DHT22;14341;51.256;22.478;2023-03-20T12:51:22;17.30;99.90
26743;DHT22;14341;51.256;22.478;2023-03-20T12:54:54;17.50;99.90
26743;DHT22;14341;51.256;22.478;2023-03-20T12:58:17;17.40;99.90
26743;DHT22;14341;51.256;22.478;2023-03-20T13:01:29;17.20;99.90
26743;DHT22;14341;51.256;22.478;2023-03-20T13:04:49;16.80;99.90
26743;DHT22;14341;51.256;22.478;2023-03-20T13:08:08;16.70;99.90
26743;DHT22;14341;51.256;22.478;2023-03-20T13:11:23;16.70;99.90
26743;DHT22;14341;51.256;22.478;2023-03-20T13:14:35;16.30;99.90
26743;DHT22;14341;51.256;22.478;2023-03-20T13:17:45;15.90;99.90
26743;DHT22;14341;51.256;22.478;2023-03-20T13:20:50;16.10;99.90
26743;DHT22;14341;51.256;22.478;2023-03-20T13:24:02;15.80;99.90
26743;DHT22;14341;51.256;22.478;2023-03-20T13:27:19;15.50;99.90
26743;DHT22;14341;51.256;22.478;2023-03-20T13:30:33;15.60;99.90
26743;DHT22;14341;51.256;22.478;2023-03-20T13:33:46;15.50;99.90
26743;DHT22;14341;51.256;22.478;2023-03-20T13:36:59;15.80;99.90
26743;DHT22;14341;51.256;22.478;2023-03-20T13:40:25;15.90;99.90
26743;DHT22;14341;51.256;22.478;2023-03-20T13:43:33;15.90;99.90
26743;DHT22;14341;51.256;22.478;2023-03-20T13:46:41;15.80;99.90
26743;DHT22;14341;51.256;22.478;2023-03-20T13:49:51;15.30;99.90
26743;DHT22;14341;51.256;22.478;2023-03-20T13:53:00;15.20;99.90
26743;DHT22;14341;51.256;22.478;2023-03-20T13:56:11;14.80;99.90
26743;DHT22;14341;51.256;22.478;2023-03-20T13:59:48;14.70;99.90
26743;DHT22;14341;51.256;22.478;2023-03-20T14:03:07;14.30;99.90
26743;DHT22;14341;51.256;22.478;2023-03-20T14:06:18;13.90;99.90
26743;DHT22;14341;51.256;22.478;2023-03-20T14:09:40;13.60;99.90
26743;DHT22;14341;51.256;22.478;2023-03-20T14:12:47;13.40;99.90
26743;DHT22;14341;51.256;22.478;2023-03-20T14:15:55;13.60;1.00
26743;DHT22;14341;51.256;22.478;2023-03-20T14:19:15;13.20;1.00
26743;DHT22;14341;51.256;22.478;2023-03-20T14:22:21;12.90;1.00
26743;DHT22;14341;51.256;22.478;2023-03-20T14:25:26;12.90;1.00
26743;DHT22;14341;51.256;22.478;2023-03-20T14:28:30;12.90;1.00
26743;DHT22;14341;51.256;22.478;2023-03-20T14:31:49;12.80;1.00
26743;DHT22;14341;51.256;22.478;2023-03-20T14:34:59;12.70;1.00
26743;DHT22;14341;51.256;22.478;2023-03-20T14:38:14;12.50;14.60
26743;DHT22;14341;51.256;22.478;2023-03-20T14:41:27;12.40;30.70
26743;DHT22;14341;51.256;22.478;2023-03-20T14:44:47;12.30;45.40
26743;DHT22;14341;51.256;22.478;2023-03-20T14:47:59;12.30;53.50
26743;DHT22;14341;51.256;22.478;2023-03-20T14:51:16;12.20;59.80
26743;DHT22;14341;51.256;22.478;2023-03-20T14:54:25;12.10;69.20
26743;DHT22;14341;51.256;22.478;2023-03-20T14:57:31;11.90;77.80
26743;DHT22;14341;51.256;22.478;2023-03-20T15:00:54;11.90;84.30
26743;DHT22;14341;51.256;22.478;2023-03-20T15:04:07;11.90;91.00
26743;DHT22;14341;51.256;22.478;2023-03-20T15:07:14;11.80;95.10
26743;DHT22;14341;51.256;22.478;2023-03-20T15:10:18;11.70;98.60
26743;DHT22;14341;51.256;22.478;2023-03-20T15:13:21;11.70;99.90
26743;DHT22;14341;51.256;22.478;2023-03-20T15:16:28;11.60;99.90
26743;DHT22;14341;51.256;22.478;2023-03-20T15:19:38;11.50;99.90
26743;DHT22;14341;51.256;22.478;2023-03-20T15:22:49;11.40;99.90
26743;DHT22;14341;51.256;22.478;2023-03-20T15:25:53;11.30;99.90
26743;DHT22;14341;51.256;22.478;2023-03-20T15:28:59;11.30;99.90
26743;DHT22;14341;51.256;22.478;2023-03-20T15:32:04;11.20;99.90
26743;DHT22;14341;51.256;22.478;2023-03-20T15:35:18;11.10;99.90
26743;DHT22;14341;51.256;22.478;2023-03-20T15:38:28;11.00;99.90
26743;DHT22;14341;51.256;22.478;2023-03-20T15:41:36;10.90;99.90
26743;DHT22;14341;51.256;22.478;2023-03-20T15:44:41;10.80;99.90
26743;DHT22;14341;51.256;22.478;2023-03-20T15:47:45;10.60;99.90
26743;DHT22;14341;51.256;22.478;2023-03-20T15:50:53;10.70;99.90
26743;DHT22;14341;51.256;22.478;2023-03-20T15:53:57;10.50;99.90
26743;DHT22;14341;51.256;22.478;2023-03-20T15:57:01;10.40;99.90
26743;DHT22;14341;51.256;22.478;2023-03-20T16:00:06;10.30;99.90
26743;DHT22;14341;51.256;22.478;2023-03-20T16:03:14;10.30;99.90
26743;DHT22;14341;51.256;22.478;2023-03-20T16:06:23;10.10;99.90
26743;DHT22;14341;51.256;22.478;2023-03-20T16:09:28;10.10;99.90
26743;DHT22;14341;51.256;22.478;2023-03-20T16:12:31;10.00;99.90
26743;DHT22;14341;51.256;22.478;2023-03-20T16:15:34;10.00;99.90
26743;DHT22;14341;51.256;22.478;2023-03-20T16:18:39;9.90;99.90
26743;DHT22;14341;51.256;22.478;2023-03-20T16:21:48;9.90;99.90
26743;DHT22;14341;51.256;22.478;2023-03-20T16:24:55;9.90;99.90
26743;DHT22;14341;51.256;22.478;2023-03-20T16:28:00;9.90;99.90
26743;DHT22;14341;51.256;22.478;2023-03-20T16:31:07;9.90;99.90
26743;DHT22;14341;51.256;22.478;2023-03-20T16:34:17;9.90;99.90
26743;DHT22;14341;51.256;22.478;2023-03-20T16:37:25;9.90;99.90
26743;DHT22;14341;51.256;22.478;2023-03-20T16:40:30;9.90;99.90
26743;DHT22;14341;51.256;22.478;2023-03-20T16:43:37;9.90;99.90
26743;DHT22;14341;51.256;22.478;2023-03-20T16:46:55;9.90;99.90
26743;DHT22;14341;51.256;22.478;2023-03-20T16:50:15;9.80;99.90
26743;DHT22;14341;51.256;22.478;2023-03-20T16:53:22;9.80;99.90
26743;DHT22;14341;51.256;22.478;2023-03-20T16:56:28;9.80;99.90
26743;DHT22;14341;51.256;22.478;2023-03-20T16:59:37;9.70;99.90
26743;DHT22;14341;51.256;22.478;2023-03-20T17:02:41;9.70;99.90
26743;DHT22;14341;51.256;22.478;2023-03-20T17:05:49;9.70;99.90
26743;DHT22;14341;51.256;22.478;2023-03-20T17:08:58;9.80;99.90
26743;DHT22;14341;51.256;22.478;2023-03-20T17:12:05;9.70;99.90
26743;DHT22;14341;51.256;22.478;2023-03-20T17:15:16;9.70;99.90
26743;DHT22;14341;51.256;22.478;2023-03-20T17:18:20;9.60;99.90
26743;DHT22;14341;51.256;22.478;2023-03-20T17:21:23;9.50;99.90
26743;DHT22;14341;51.256;22.478;2023-03-20T17:24:28;9.50;99.90
26743;DHT22;14341;51.256;22.478;2023-03-20T17:27:31;9.50;99.90
26743;DHT22;14341;51.256;22.478;2023-03-20T17:30:35;9.40;99.90
26743;DHT22;14341;51.256;22.478;2023-03-20T17:33:39;9.40;99.90
26743;DHT22;14341;51.256;22.478;2023-03-20T17:36:42;9.40;99.90
26743;DHT22;14341;51.256;22.478;2023-03-20T17:39:47;9.40;99.90
26743;DHT22;14341;51.256;22.478;2023-03-20T17:42:51;9.40;99.90
26743;DHT22;14341;51.256;22.478;2023-03-20T17:45:54;9.40;99.90
26743;DHT22;14341;51.256;22.478;2023-03-20T17:49:02;9.40;99.90
26743;DHT22;14341;51.256;22.478;2023-03-20T17:52:10;9.40;99.90
26743;DHT22;14341;51.256;22.478;2023-03-20T17:55:16;9.40;99.90
26743;DHT22;14341;51.256;22.478;2023-03-20T17:58:21;9.40;99.90
26743;DHT22;14341;51.256;22.478;2023-03-20T18:01:25;9.40;99.90
26743;DHT22;14341;51.256;22.478;2023-03-20T18:04:31;9.40;99.90
26743;DHT22;14341;51.256;22.478;2023-03-20T18:07:35;9.40;99.90
26743;DHT22;14341;51.256;22.478;2023-03-20T18:10:41;9.40;99.90
26743;DHT22;14341;51.256;22.478;2023-03-20T18:13:44;9.40;99.90
26743;DHT22;14341;51.256;22.478;2023-03-20T18:16:48;9.40;99.90
26743;DHT22;14341;51.256;22.478;2023-03-20T18:19:51;9.40;99.90
26743;DHT22;14341;51.256;22.478;2023-03-20T18:22:54;9.40;99.90
26743;DHT22;14341;51.256;22.478;2023-03-20T18:26:00;9.30;99.90
26743;DHT22;14341;51.256;22.478;2023-03-20T18:29:04;9.30;99.90
26743;DHT22;14341;51.256;22.478;2023-03-20T18:32:07;9.30;99.90
26743;DHT22;14341;51.256;22.478;2023-03-20T18:35:10;9.30;99.90
26743;DHT22;14341;51.256;22.478;2023-03-20T18:38:14;9.20;99.90
26743;DHT22;14341;51.256;22.478;2023-03-20T18:41:19;9.20;99.90
26743;DHT22;14341;51.256;22.478;2023-03-20T18:44:23;9.20;99.90
26743;DHT22;14341;51.256;22.478;2023-03-20T18:47:27;9.20;99.90
26743;DHT22;14341;51.256;22.478;2023-03-20T18:50:33;9.20;99.90
26743;DHT22;14341;51.256;22.478;2023-03-20T18:53:39;9.10;99.90
26743;DHT22;14341;51.256;22.478;2023-03-20T18:56:44;9.10;99.90
26743;DHT22;14341;51.256;22.478;2023-03-20T18:59:50;9.00;99.90
26743;DHT22;14341;51.256;22.478;2023-03-20T19:02:55;9.10;99.90
26743;DHT22;14341;51.256;22.478;2023-03-20T19:05:59;9.00;99.90
26743;DHT22;14341;51.256;22.478;2023-03-20T19:09:03;9.00;99.90
26743;DHT22;14341;51.256;22.478;2023-03-20T19:12:08;9.00;99.90
26743;DHT22;14341;51.256;22.478;2023-03-20T19:15:11;9.00;99.90
26743;DHT22;14341;51.256;22.478;2023-03-20T19:18:16;9.00;99.90
26743;DHT22;14341;51.256;22.478;2023-03-20T19:21:21;9.00;99.90
26743;DHT22;14341;51.256;22.478;2023-03-20T19:24:27;9.00;99.90
26743;DHT22;14341;51.256;22.478;2023-03-20T19:27:32;9.00;99.90
26743;DHT22;14341;51.256;22.478;2023-03-20T19:30:38;9.00;99.90
26743;DHT22;14341;51.256;22.478;2023-03-20T19:33:42;9.00;99.90
26743;DHT22;14341;51.256;22.478;2023-03-20T19:36:45;9.00;99.90
26743;DHT22;14341;51.256;22.478;2023-03-20T19:39:50;9.00;99.90
26743;DHT22;14341;51.256;22.478;2023-03-20T19:42:55;9.00;99.90
26743;DHT22;14341;51.256;22.478;2023-03-20T19:46:03;9.00;99.90
26743;DHT22;14341;51.256;22.478;2023-03-20T19:49:15;9.00;99.90
26743;DHT22;14341;51.256;22.478;2023-03-20T19:52:26;8.90;99.90
26743;DHT22;14341;51.256;22.478;2023-03-20T19:55:32;8.90;99.90
26743;DHT22;14341;51.256;22.478;2023-03-20T19:58:38;8.80;99.90